Date,TemperatureHighF,TemperatureAvgF,TemperatureLowF,DewpointHighF,DewpointAvgF,DewpointLowF,HumidityHigh,HumidityAvg,HumidityLow,PressureMaxIn,PressureMinIn,WindSpeedMaxMPH,WindSpeedAvgMPH,GustSpeedMaxMPH,PrecipitationSumIn
2013-1-1,52,41,33,43,37,31,94,86,67,30.27,30.20,8,2,14,0.00
2013-1-2,56,41,32,43,36,30,94,83,58,30.26,30.14,2,0,4,0.01
2013-1-3,55,42,31,44,37,29,94,85,63,30.27,30.17,5,1,7,0.01
2013-1-4,55,41,30,45,37,28,94,85,65,30.31,30.18,3,0,6,0.01
2013-1-5,55,45,36,47,41,34,99,88,74,30.27,30.07,5,1,9,0.57
2013-1-6,50,46,43,47,44,41,94,93,89,30.16,30.07,6,2,12,1.04
2013-1-7,52,44,38,47,41,36,94,91,79,30.25,30.12,5,1,8,0.01
2013-1-8,57,45,36,47,41,34,94,86,67,30.24,30.14,3,0,7,0.01
2013-1-9,53,47,40,48,43,38,94,87,70,30.16,29.95,18,3,29,0.01
2013-1-10,51,43,34,39,36,31,91,75,54,30.15,30.03,13,5,21,0.01
2013-1-11,50,40,31,37,33,28,91,79,52,30.24,30.13,6,2,14,0.00
2013-1-13,46,37,27,34,30,24,92,75,51,30.25,30.15,9,3,14,0.00
2013-1-14,48,36,25,35,29,22,90,76,54,30.40,30.19,5,1,8,0.00
2013-1-15,53,40,31,37,32,28,89,76,48,30.49,30.40,4,1,8,0.01
2013-1-16,58,41,29,39,33,27,92,75,41,30.45,30.27,4,0,7,0.01
2013-1-17,63,43,30,45,36,27,91,78,49,30.28,30.16,2,0,4,0.00
2013-1-18,61,44,31,46,38,29,92,80,53,30.24,30.13,4,0,6,0.01
2013-1-19,62,44,31,46,38,29,93,81,53,30.27,30.16,5,1,9,0.01
2013-1-20,64,44,32,45,38,30,93,79,48,30.24,30.13,3,0,6,0.01
2013-1-21,63,45,32,46,38,30,92,79,43,30.20,30.10,3,1,6,0.01
2013-1-22,64,48,33,48,41,31,93,80,55,30.14,30.01,4,1,7,0.01
2013-1-23,59,51,44,50,46,41,92,83,61,30.07,29.97,14,2,17,0.00
2013-1-24,55,51,48,53,49,46,94,93,91,30.18,30.05,8,3,11,0.15
2013-1-25,60,55,51,57,53,49,94,93,89,30.18,30.02,5,1,9,0.10
2013-1-26,60,55,49,55,49,41,94,81,52,30.03,29.94,18,7,24,0.01
2013-1-27,55,48,40,43,40,36,91,73,51,30.14,30.03,15,5,22,0.00
2013-1-28,57,47,36,44,39,33,91,75,51,30.24,30.10,16,5,24,0.00
2013-1-29,59,49,40,45,42,37,92,78,56,30.29,30.23,14,4,19,0.00
2013-1-30,64,49,37,49,42,35,92,78,55,30.35,30.24,5,1,9,0.00
2013-1-31,66,53,37,50,46,35,93,77,55,30.29,30.16,3,0,5,0.00
2013-2-1,68,50,35,53,44,33,94,83,55,30.22,30.10,5,0,7,0.01
2013-2-2,61,50,44,52,46,42,93,87,69,30.27,30.19,6,1,9,0.01
2013-2-3,62,50,41,52,46,39,93,85,67,30.22,30.09,12,3,16,0.02
2013-2-4,67,51,38,53,46,36,94,82,56,30.16,30.03,4,0,6,0.01
2013-2-5,57,50,42,48,46,40,94,85,68,30.11,30.02,10,4,17,0.01
2013-2-6,62,50,44,49,45,42,94,84,54,30.17,30.09,11,4,15,0.01
2013-2-7,56,49,41,47,43,39,93,80,61,30.17,29.99,10,2,15,0.01
2013-2-8,55,47,39,42,40,35,93,77,54,29.99,29.89,13,6,19,0.00
2013-2-9,56,44,32,39,34,29,89,71,44,30.09,29.92,7,2,15,0.00
2013-2-10,58,45,34,42,37,31,91,75,51,30.11,30.01,9,1,12,0.00
2013-2-11,61,46,35,42,38,32,91,74,47,30.23,30.04,4,1,8,0.00
2013-2-12,65,49,37,44,40,33,88,71,42,30.35,30.22,4,1,8,0.00
2013-2-13,63,50,37,46,41,34,92,74,51,30.32,30.19,4,1,11,0.00
2013-2-14,69,52,37,49,43,34,92,75,46,30.24,30.14,4,0,8,0.00
2013-2-15,72,54,40,52,45,37,92,74,45,30.27,30.19,3,1,7,0.00
2013-2-16,69,54,43,51,46,41,92,76,50,30.23,30.01,4,1,7,0.00
2013-2-17,66,52,39,50,44,37,92,78,55,30.02,29.93,11,3,17,0.01
2013-2-18,61,49,37,48,42,35,92,79,63,29.99,29.90,17,4,21,0.01
2013-2-19,53,45,39,43,40,35,90,82,66,29.95,29.73,16,4,22,0.41
2013-2-20,60,46,35,43,38,32,90,74,44,30.04,29.79,14,6,22,0.02
2013-2-21,59,48,37,45,39,34,90,74,44,30.14,30.03,13,4,21,0.00
2013-2-22,62,49,35,44,40,32,93,73,50,30.23,30.14,5,1,10,0.00
2013-2-23,59,52,46,47,40,32,85,66,36,30.21,30.10,19,8,25,0.00
2013-2-24,61,49,41,38,34,31,78,58,40,30.24,30.12,14,5,19,0.00
2013-2-25,64,52,38,48,41,34,88,69,44,30.25,30.12,12,2,18,0.00
2013-2-26,66,52,42,42,36,34,84,58,30,30.18,30.09,15,6,25,0.00
2013-2-27,70,53,37,48,40,32,87,66,36,30.33,30.18,5,1,9,0.00
2013-2-28,71,56,41,53,46,38,89,71,45,30.41,30.33,12,3,17,0.00
2013-3-1,73,59,44,55,50,42,93,73,49,30.40,30.22,7,1,14,0.00
2013-3-2,75,62,49,57,52,45,93,72,47,30.23,30.01,6,1,11,0.00
2013-3-3,69,61,52,55,52,46,89,74,49,30.07,29.97,13,4,17,0.00
2013-3-4,70,56,44,54,49,42,92,78,54,30.11,29.98,8,3,16,0.00
2013-3-5,70,56,45,49,44,37,90,69,30,30.03,29.85,9,3,14,0.01
2013-3-6,60,54,49,49,45,42,88,71,55,30.06,29.89,8,3,18,0.07
2013-3-7,60,52,43,48,44,40,90,76,52,29.98,29.83,7,1,15,0.02
2013-3-8,64,53,45,48,44,38,93,72,38,30.03,29.79,15,6,23,0.03
2013-3-9,69,53,42,48,42,37,91,69,32,30.27,30.03,17,5,28,0.01
2013-3-10,69,55,40,49,44,38,92,71,42,30.34,30.23,9,2,13,0.00
2013-3-11,71,56,42,50,46,39,91,70,44,30.24,30.07,7,1,11,0.00
2013-3-12,77,61,45,58,50,42,89,70,42,30.14,30.03,5,1,11,0.00
2013-3-13,82,64,48,61,53,45,92,72,39,30.15,30.03,7,1,12,0.00
2013-3-14,78,64,50,61,54,47,91,74,52,30.11,30.03,10,3,15,0.00
2013-3-15,75,64,54,58,52,47,80,67,51,30.07,29.98,13,5,19,0.00
2013-3-16,77,64,52,54,50,44,88,64,31,30.05,29.95,15,6,23,0.00
2013-3-17,71,61,48,48,45,38,84,59,30,30.09,29.99,16,7,23,0.00
2013-3-18,71,60,46,52,47,42,90,65,39,30.08,29.98,9,2,12,0.00
2013-3-19,75,62,49,54,48,42,89,63,35,30.13,30.01,13,3,19,0.07
2013-3-20,71,62,57,58,55,52,91,80,51,30.10,30.04,11,3,17,0.11
2013-3-21,66,57,48,55,48,37,91,75,46,30.09,29.95,16,8,25,0.01
2013-3-22,66,56,47,46,36,30,68,48,26,30.05,29.97,19,11,28,0.00
2013-3-23,68,55,44,46,37,34,77,53,30,30.13,30.01,12,5,18,0.00
2013-3-24,74,57,41,53,44,37,88,65,35,30.07,29.91,7,1,13,0.00
2013-3-25,73,59,47,54,48,42,90,69,39,29.97,29.86,10,3,15,0.00
2013-3-26,72,59,51,54,49,46,85,71,47,29.97,29.87,7,4,12,0.00
2013-3-27,74,61,53,57,52,48,83,73,52,29.99,29.89,12,5,17,0.00
2013-3-28,73,63,55,58,54,51,89,75,55,30.06,29.99,8,3,12,0.00
2013-3-29,79,65,54,61,56,52,92,73,47,30.07,29.96,6,3,9,0.00
2013-3-30,79,66,56,61,55,-100,87,72,47,30.02,29.91,12,4,19,0.12
2013-3-31,73,61,55,61,54,-100,94,82,50,30.07,29.94,13,2,18,0.91
2013-4-1,70,61,54,58,55,52,94,82,59,30.12,30.03,8,2,14,0.20
2013-4-2,72,61,52,59,54,49,93,80,58,30.14,30.03,13,5,17,0.01
2013-4-3,79,64,51,61,55,48,92,75,48,30.10,29.93,5,1,9,0.00
2013-4-4,72,63,55,61,57,52,93,83,65,30.09,29.95,9,4,16,0.33
2013-4-5,68,61,55,56,54,52,92,79,62,30.14,30.07,14,6,19,0.01
2013-4-6,68,61,54,58,54,51,93,80,68,30.16,30.07,11,5,18,0.00
2013-4-7,70,61,55,59,53,49,90,76,57,30.12,29.83,20,7,33,0.00
2013-4-8,68,59,51,51,43,39,87,59,37,29.93,29.74,23,15,36,0.02
2013-4-9,75,61,50,46,42,40,72,52,32,30.01,29.93,26,11,35,0.01
2013-4-10,84,65,46,64,50,42,88,61,37,30.15,29.96,11,2,17,0.00
2013-4-11,77,66,55,57,52,48,86,64,42,29.98,29.78,16,7,24,0.00
2013-4-12,81,65,51,58,51,47,90,64,35,29.87,29.76,10,3,14,0.00
2013-4-13,77,64,53,59,51,47,81,64,49,29.85,29.73,14,6,20,0.00
2013-4-14,74,60,49,51,46,37,86,62,30,29.87,29.75,16,9,24,0.00
2013-4-15,63,56,50,51,46,39,88,70,47,29.89,29.79,19,9,29,0.00
2013-4-16,67,56,48,44,38,32,76,53,28,30.08,29.89,19,11,30,0.00
2013-4-17,70,56,46,40,36,31,71,49,27,30.20,30.07,21,10,30,0.00
2013-4-18,76,60,45,54,41,35,81,53,27,30.24,30.14,8,2,12,0.00
2013-4-19,82,64,49,56,49,43,85,61,34,30.21,30.01,9,2,14,0.00
2013-4-20,82,68,57,58,50,45,76,56,27,30.06,29.92,15,7,21,0.00
2013-4-21,86,66,53,62,52,48,88,64,28,30.00,29.88,9,3,16,0.00
2013-4-22,87,69,53,56,52,48,86,59,27,29.93,29.77,12,5,18,0.00
2013-4-23,83,69,59,59,45,39,67,43,24,29.90,29.79,13,7,21,0.00
2013-4-24,84,66,51,57,49,42,78,57,29,29.84,29.72,13,5,19,0.00
2013-4-25,77,63,53,59,53,49,89,72,48,30.06,29.84,10,5,16,0.00
2013-4-26,82,64,50,60,53,47,91,71,41,30.18,30.06,8,4,13,0.00
2013-4-27,88,68,53,64,55,48,86,66,43,30.17,29.98,8,4,14,0.00
2013-4-28,90,71,53,64,57,50,90,65,38,29.99,29.81,11,4,18,0.00
2013-4-29,90,73,59,60,56,51,88,61,27,29.85,29.68,14,5,19,0.00
2013-4-30,84,71,63,59,51,39,73,52,27,29.78,29.70,15,9,24,0.00
2013-5-1,87,73,60,63,46,38,64,40,27,30.02,29.76,12,5,18,0.00
2013-5-2,90,72,58,65,50,44,78,50,26,30.13,30.01,9,3,12,0.00
2013-5-3,91,71,55,66,51,44,76,52,28,30.03,29.73,10,3,16,0.00
2013-5-4,89,73,58,63,52,46,81,51,25,29.73,29.47,13,4,19,0.00
2013-5-5,76,66,56,53,51,49,85,62,43,29.78,29.52,8,4,22,0.00
2013-5-6,76,67,61,58,54,51,79,63,44,29.93,29.78,13,3,18,0.00
2013-5-7,73,66,60,60,56,52,85,72,55,30.01,29.93,12,2,17,0.00
2013-5-8,75,66,60,57,54,52,77,65,47,30.07,29.99,11,5,18,0.01
2013-5-9,80,66,54,62,56,51,90,71,52,30.09,29.99,14,7,17,0.01
2013-5-10,85,68,56,67,56,-100,89,70,50,30.12,30.00,8,4,17,0.00
2013-5-11,93,74,61,70,60,-100,83,64,41,30.06,29.96,9,2,14,0.00
2013-5-12,92,75,63,65,58,54,80,58,35,30.07,29.93,12,4,19,0.00
2013-5-13,91,78,64,64,57,50,67,50,31,30.01,29.85,13,5,17,0.00
2013-5-14,89,73,62,64,57,49,80,60,38,29.90,29.81,14,6,20,0.00
2013-5-15,79,67,54,58,51,47,78,58,42,29.98,29.89,14,6,20,0.00
2013-5-16,75,61,59,58,37,-100,83,70,50,29.99,29.89,16,8,22,0.00
2013-5-17,75,63,54,54,45,-100,82,63,42,30.02,29.93,15,8,20,0.00
2013-5-18,81,65,52,57,51,47,86,63,33,30.09,29.99,13,7,18,0.00
2013-5-19,84,71,57,56,52,46,84,55,27,30.05,29.90,18,9,26,0.00
2013-5-20,88,72,59,64,51,46,75,51,23,29.97,29.84,8,3,14,0.00
2013-5-21,78,67,57,55,49,43,77,54,32,29.90,29.83,17,6,24,0.00
2013-5-22,71,59,51,48,39,31,72,49,23,29.95,29.83,19,11,29,0.00
2013-5-23,74,60,50,50,46,42,84,62,32,29.94,29.86,15,6,20,0.00
2013-5-24,81,63,50,51,47,42,81,58,28,29.96,29.85,17,4,23,0.00
2013-5-25,77,61,50,54,48,44,84,65,42,29.98,29.91,13,6,21,0.00
2013-5-26,76,65,55,58,54,50,86,68,49,30.07,29.98,16,10,22,0.00
2013-5-27,70,63,55,59,55,50,85,76,65,30.07,29.98,15,7,21,0.00
2013-5-28,77,67,61,60,58,55,88,72,50,29.98,29.83,15,7,22,0.00
2013-5-29,79,68,60,61,56,52,85,67,43,29.91,29.81,16,7,22,0.02
2013-5-30,83,68,55,57,53,48,86,60,31,29.92,29.85,14,7,19,0.02
2013-5-31,91,72,60,62,54,50,77,56,26,29.94,29.83,13,7,23,0.00
2013-6-1,96,76,61,69,59,53,81,57,27,29.85,29.69,10,3,14,0.00
2013-6-2,93,77,65,66,60,54,69,57,38,29.70,29.56,11,5,14,0.00
2013-6-3,89,74,62,66,59,55,79,62,37,29.75,29.61,11,6,16,0.00
2013-6-4,84,70,58,66,58,54,86,68,50,29.86,29.75,11,7,16,0.00
2013-6-5,86,70,57,66,58,53,88,69,48,29.93,29.79,9,6,15,0.00
2013-6-6,91,73,58,71,61,54,89,68,48,29.88,29.73,11,6,15,0.00
2013-6-7,97,77,62,76,65,56,83,67,48,29.80,29.63,10,5,16,0.00
2013-6-8,104,85,71,77,67,60,81,58,37,29.67,29.56,11,4,16,0.00
2013-6-9,83,72,63,66,61,56,83,70,55,29.81,29.65,16,9,22,0.00
2013-6-10,77,67,59,62,57,55,89,73,52,29.90,29.78,10,4,16,0.00
2013-6-11,83,70,58,67,60,54,90,72,53,29.93,29.81,11,4,16,0.00
2013-6-12,87,68,62,60,56,44,81,68,25,29.91,29.83,15,4,23,0.00
2013-6-13,85,66,54,55,51,48,79,60,30,30.03,29.91,14,6,21,0.00
2013-6-14,87,67,60,55,53,48,80,62,26,29.90,29.75,11,5,18,0.00
2013-6-15,86,67,56,59,53,50,85,63,31,29.90,29.76,13,3,16,0.00
2013-6-16,89,70,59,58,53,50,74,58,29,29.99,29.90,17,6,23,0.00
2013-6-17,84,67,60,61,55,52,78,65,42,30.01,29.93,16,6,23,0.00
2013-6-18,75,65,58,56,54,51,87,69,45,29.98,29.89,20,10,27,0.00
2013-6-19,79,63,55,53,51,46,85,67,31,29.99,29.92,15,8,23,0.00
2013-6-20,80,64,56,56,53,50,85,70,40,29.93,29.87,12,6,18,0.00
2013-6-21,84,84,84,57,57,57,40,40,40,29.89,29.89,11,11,18,0.00
2013-6-22,84,70,62,58,56,52,77,62,40,29.87,29.77,9,6,16,0.00
2013-6-23,76,70,64,65,60,52,78,70,57,29.83,29.75,15,8,21,0.00
2013-6-24,75,69,67,67,64,62,93,85,71,29.88,29.75,10,3,17,0.08
2013-6-25,87,74,66,70,66,64,94,78,51,29.93,29.86,10,4,16,0.03
2013-6-26,89,76,66,70,67,63,92,75,53,30.00,29.91,12,6,16,0.00
2013-6-27,95,77,67,70,65,62,85,69,37,30.01,29.93,11,6,19,0.00
2013-6-28,101,80,70,72,66,62,77,65,34,29.95,29.83,11,4,14,0.00
2013-6-29,99,81,72,71,64,61,70,57,40,29.85,29.72,9,3,14,0.00
2013-6-30,101,84,72,73,65,61,70,55,38,29.77,29.67,10,4,13,0.00
2013-7-1,101,81,73,72,64,61,67,58,34,29.77,29.69,9,4,13,0.00
2013-7-2,103,85,77,72,66,64,68,56,32,29.80,29.71,9,2,13,0.00
2013-7-3,101,81,70,76,67,62,81,63,40,29.82,29.65,8,4,11,0.00
2013-7-4,102,86,78,73,68,61,70,57,37,29.69,29.59,12,4,18,0.00
2013-7-5,88,78,69,65,59,52,67,53,41,29.69,29.60,11,6,17,0.00
2013-7-6,90,69,61,64,59,56,87,71,43,29.74,29.64,8,4,11,0.00
2013-7-7,92,72,62,64,60,57,85,66,40,29.77,29.68,9,5,13,0.00
2013-7-8,93,69,62,63,56,-100,83,67,35,29.89,29.76,8,5,14,0.00
2013-7-9,96,74,67,62,59,56,71,61,28,29.97,29.89,8,4,13,0.00
2013-7-10,94,73,69,62,52,-100,62,52,32,29.89,29.79,7,4,10,0.00
2013-7-11,85,68,60,60,57,52,85,68,39,29.85,29.82,10,6,15,0.00
2013-7-12,84,69,59,62,57,51,89,69,42,29.88,29.80,8,4,13,0.00
2013-7-13,95,74,61,61,56,50,81,56,26,29.89,29.80,7,3,13,0.00
2013-7-14,91,73,66,62,56,53,72,56,38,29.91,29.80,9,4,15,0.00
2013-7-15,88,69,61,60,56,53,80,64,32,29.83,29.72,11,6,16,0.00
2013-7-16,81,68,57,62,58,54,91,73,49,29.96,29.78,12,7,18,0.00
2013-7-17,89,68,59,64,59,56,91,75,36,30.03,29.93,11,7,16,0.00
2013-7-18,94,70,59,65,58,55,87,69,28,29.98,29.85,11,4,16,0.00
2013-7-19,96,71,62,64,58,55,82,65,34,29.86,29.71,9,3,15,0.00
2013-7-20,99,76,66,72,61,-100,77,63,33,29.77,29.62,7,3,11,0.00
2013-7-21,95,75,65,67,62,59,83,65,36,29.78,29.67,11,4,15,0.00
2013-7-22,87,74,63,69,62,57,84,66,51,29.88,29.77,12,6,18,0.00
2013-7-23,86,75,69,63,60,53,71,60,35,29.94,29.85,8,5,14,0.00
2013-7-24,96,76,67,67,56,50,65,51,34,29.92,29.79,11,4,15,0.00
2013-7-25,96,81,70,71,62,57,72,53,41,29.92,29.83,11,4,16,0.00
2013-7-26,94,78,67,68,60,56,73,56,40,29.99,29.88,9,4,15,0.00
2013-7-27,93,78,63,68,61,56,83,58,35,29.92,29.76,8,4,13,0.00
2013-7-28,90,75,63,67,62,58,85,65,42,29.79,29.69,10,5,14,0.00
2013-7-29,85,69,58,65,59,55,90,73,49,29.92,29.73,9,6,14,0.00
2013-7-30,88,70,58,66,59,55,91,72,45,30.04,29.91,10,6,16,0.00
2013-7-31,88,72,60,62,57,54,86,62,34,30.01,29.89,12,5,17,0.00
2013-8-1,86,68,59,60,54,52,80,61,41,29.98,29.88,12,6,18,0.00
2013-8-2,90,69,57,63,56,52,85,65,33,29.91,29.80,9,3,17,0.00
2013-8-3,90,69,60,62,57,53,83,66,33,29.91,29.81,7,3,11,0.00
2013-8-4,88,71,58,63,59,55,89,68,39,29.93,29.84,10,5,14,0.00
2013-8-5,88,68,59,62,58,56,91,73,35,29.95,29.83,9,4,15,0.00
2013-8-6,84,68,58,63,58,54,89,73,46,29.96,29.88,11,6,17,0.00
2013-8-7,81,68,60,63,59,57,91,74,50,30.04,29.95,10,6,17,0.00
2013-8-8,83,69,59,64,60,57,92,75,51,29.98,29.84,10,5,16,0.00
2013-8-9,83,69,57,64,59,54,91,73,49,29.91,29.83,8,5,13,0.00
2013-8-10,85,70,58,66,61,55,92,74,50,29.98,29.90,9,5,19,0.00
2013-8-11,88,73,60,66,61,57,91,70,44,29.96,29.84,10,4,17,0.00
2013-8-12,90,70,63,61,59,55,83,68,32,29.93,29.85,9,3,13,0.00
2013-8-13,94,69,61,62,54,-100,83,65,28,29.93,29.82,8,3,11,0.00
2013-8-14,93,71,64,62,55,-100,75,60,34,29.91,29.82,10,3,15,0.00
2013-8-15,93,68,65,69,45,-100,84,62,42,29.90,29.82,11,4,16,0.00
2013-8-16,95,74,68,70,61,-100,86,69,37,29.92,29.84,11,4,17,0.00
2013-8-17,90,77,71,65,58,-100,66,54,43,29.91,29.77,13,5,18,0.00
2013-8-18,97,77,67,70,64,61,82,66,37,29.83,29.70,7,2,10,0.00
2013-8-19,100,75,69,70,53,-100,82,64,36,29.83,29.69,10,2,19,0.00
2013-8-20,93,79,71,67,61,-100,71,56,42,29.81,29.70,9,4,14,0.00
2013-8-21,88,72,64,64,60,56,84,66,41,29.86,29.76,8,4,12,0.00
2013-8-22,86,73,62,65,60,56,84,67,48,29.88,29.78,11,6,18,0.00
2013-8-23,88,71,59,65,59,55,90,70,39,29.86,29.72,9,5,15,0.00
2013-8-24,83,69,61,64,57,-100,82,68,45,29.83,29.75,13,3,18,0.00
2013-8-25,89,72,64,67,63,59,88,74,47,29.90,29.78,10,4,15,0.00
2013-8-26,86,72,63,65,61,58,89,71,41,29.95,29.82,10,7,16,0.00
2013-8-27,82,69,63,63,58,55,80,70,52,29.84,29.80,8,2,12,0.00
2013-8-28,90,79,71,67,64,62,77,61,40,29.86,29.78,8,5,13,0.00
2013-8-29,89,74,64,68,64,61,90,73,42,29.98,29.86,12,5,18,0.00
2013-8-30,90,73,66,68,63,61,87,74,43,29.98,29.86,9,4,13,0.00
2013-8-31,94,75,69,64,58,-100,73,59,34,29.90,29.80,8,3,12,0.00
2013-9-1,90,75,68,65,60,55,71,60,44,29.88,29.78,12,5,15,0.00
2013-9-2,83,75,70,68,64,62,79,70,53,29.90,29.81,11,5,17,0.00
2013-9-3,85,72,66,65,61,57,84,70,44,29.94,29.85,9,4,17,0.00
2013-9-4,86,71,64,62,60,57,84,70,42,29.98,29.86,7,4,13,0.00
2013-9-5,85,69,63,62,59,57,87,73,40,29.96,29.87,5,2,12,0.00
2013-9-6,82,68,62,62,59,56,83,74,48,29.93,29.88,6,2,14,0.00
2013-9-7,90,69,62,61,53,-100,86,65,37,29.84,29.75,3,0,6,0.00
2013-9-8,97,77,69,62,59,56,69,55,31,29.80,29.67,8,2,14,0.00
2013-9-9,91,74,66,64,59,55,77,60,40,29.75,29.63,5,1,9,0.00
2013-9-10,87,74,65,65,59,54,82,61,38,29.81,29.63,6,2,13,0.00
2013-9-11,83,70,62,66,62,59,91,77,53,29.94,29.81,12,5,17,0.00
2013-9-12,86,72,61,68,63,58,93,75,49,29.93,29.79,9,5,14,0.00
2013-9-13,90,74,63,68,63,58,89,70,45,29.83,29.65,9,4,13,0.00
2013-9-14,87,71,63,66,58,-100,81,66,50,29.75,29.63,9,5,14,0.00
2013-9-15,85,72,61,63,59,55,84,65,45,29.79,29.69,11,7,23,0.00
2013-9-16,87,72,61,64,61,56,90,70,43,29.84,29.71,9,5,13,0.00
2013-9-17,80,68,58,59,57,54,88,68,48,29.82,29.75,13,4,19,0.00
2013-9-18,67,64,62,58,56,52,81,76,63,29.81,29.79,8,4,11,0.00
2013-9-19,88,63,54,56,53,50,88,72,32,29.82,29.71,3,0,6,0.00
2013-9-20,80,69,56,64,58,52,87,67,51,29.81,29.70,14,5,22,0.00
2013-9-21,77,64,60,63,57,-100,92,83,47,29.86,29.76,18,2,27,0.32
2013-9-22,73,62,55,60,56,53,94,82,55,29.97,29.86,12,5,18,0.01
2013-9-23,82,67,55,63,58,52,93,75,49,29.99,29.87,9,3,15,0.01
2013-9-24,80,67,57,62,58,54,92,73,47,29.95,29.82,14,5,21,0.00
2013-9-25,71,63,52,54,51,48,87,67,45,29.88,29.75,13,6,21,0.00
2013-9-26,74,60,53,51,48,45,78,65,35,29.90,29.76,17,9,25,0.00
2013-9-27,77,58,49,48,46,43,82,65,32,30.07,29.92,7,3,15,0.00
2013-9-28,85,60,50,52,44,-100,82,61,21,30.07,29.96,3,1,7,0.00
2013-9-29,81,68,57,62,57,50,90,69,45,30.08,29.98,8,3,13,0.00
2013-9-30,79,70,60,63,61,57,91,74,56,30.03,29.90,13,4,19,0.00
2013-10-1,76,67,61,56,55,53,75,66,47,29.88,29.86,8,1,12,0.00
2013-10-2,80,64,56,54,52,47,86,67,32,29.96,29.86,10,3,18,0.00
2013-10-3,71,59,54,50,46,37,75,63,37,30.01,29.89,17,8,25,0.00
2013-10-4,80,58,46,48,42,38,76,59,24,30.07,29.90,5,1,8,0.00
2013-10-5,80,54,46,50,45,41,86,74,30,30.19,30.07,3,0,6,0.00
2013-10-6,85,69,55,50,46,43,79,48,25,30.11,29.97,2,0,5,0.00
2013-10-7,84,55,49,50,48,44,89,79,25,29.95,29.83,6,0,11,0.00
2013-10-8,76,63,54,50,48,45,77,58,37,29.86,29.63,10,5,20,0.00
2013-10-9,69,60,50,51,49,45,85,68,50,29.71,29.56,5,1,9,0.00
2013-10-10,74,60,50,53,49,46,85,71,43,29.95,29.71,5,1,14,0.00
2013-10-11,75,59,48,55,50,44,90,74,43,30.04,29.93,7,2,11,0.00
2013-10-12,76,60,46,53,47,-100,90,66,38,29.97,29.83,4,0,9,0.00
2013-10-13,75,61,51,51,48,44,89,67,40,30.01,29.86,11,5,18,0.00
2013-10-14,77,59,46,52,47,42,89,68,37,30.09,29.96,7,2,13,0.00
2013-10-15,76,56,44,51,46,41,90,72,37,30.02,29.93,7,2,12,0.00
2013-10-16,82,53,47,50,44,41,84,74,31,30.07,29.96,3,0,9,0.00
2013-10-17,80,58,47,51,47,43,90,72,32,30.05,29.93,10,2,15,0.00
2013-10-18,77,56,46,52,45,40,81,70,34,30.03,29.93,2,0,6,0.00
2013-10-19,78,55,47,55,45,-100,88,75,37,30.06,29.95,2,0,7,0.00
2013-10-20,83,57,47,52,49,44,90,76,32,29.98,29.85,4,0,7,0.00
2013-10-21,82,60,48,55,49,43,87,72,35,29.96,29.85,2,0,5,0.00
2013-10-22,78,57,46,57,50,43,93,79,45,29.98,29.86,6,1,9,0.00
2013-10-23,82,59,48,56,50,43,89,74,35,29.91,29.82,6,1,10,0.00
2013-10-24,73,62,52,55,52,48,87,71,51,29.99,29.88,10,3,17,0.00
2013-10-25,75,62,50,58,52,47,91,73,49,30.14,30.03,6,2,10,0.00
2013-10-26,80,59,45,56,48,-100,92,73,39,30.11,29.97,8,2,12,0.00
2013-10-27,81,59,46,55,49,43,88,72,36,29.97,29.63,15,2,22,0.00
2013-10-28,67,57,50,50,46,-100,87,70,44,29.84,29.63,10,1,17,0.00
2013-10-29,65,56,48,51,48,43,90,76,53,30.01,29.84,6,1,11,0.00
2013-10-30,67,55,42,51,48,40,93,78,54,30.12,30.01,8,2,14,0.00
2013-10-31,72,54,42,51,46,39,91,75,46,30.16,30.04,3,0,10,0.00
2013-11-1,77,55,43,53,46,40,89,75,40,30.15,29.98,4,0,7,0.00
2013-11-2,75,54,43,54,44,-100,89,74,43,30.00,29.84,6,1,12,0.00
2013-11-3,64,56,51,52,41,36,86,58,36,29.99,29.88,13,7,24,0.00
2013-11-4,68,53,47,39,37,35,70,56,33,30.03,29.86,13,5,21,0.00
2013-11-5,68,50,36,43,38,32,86,65,37,30.22,30.01,4,0,8,0.00
2013-11-6,74,54,41,46,42,37,88,67,33,30.26,30.15,3,0,5,0.00
2013-11-7,73,53,46,48,43,40,85,71,38,30.15,30.03,3,0,5,0.00
2013-11-8,75,57,43,54,47,39,88,72,45,30.05,29.91,5,1,8,0.00
2013-11-9,75,55,43,54,45,-100,90,73,43,30.01,29.94,3,0,5,0.00
2013-11-10,75,55,41,54,47,38,89,75,43,30.08,29.99,5,0,8,0.00
2013-11-11,70,56,44,54,49,42,91,79,52,30.15,30.05,4,1,6,0.00
2013-11-12,70,59,52,53,50,47,87,72,50,30.22,30.11,6,2,11,0.01
2013-11-13,75,54,42,52,46,39,90,76,44,30.21,30.04,10,1,15,0.01
2013-11-14,73,59,47,54,48,42,87,70,48,30.07,29.80,5,1,10,0.00
2013-11-15,67,56,47,48,44,39,90,67,41,29.81,29.67,15,5,22,0.00
2013-11-16,65,51,42,47,41,-100,86,70,49,29.91,29.74,6,1,9,0.00
2013-11-17,67,52,39,53,45,36,91,79,56,30.06,29.90,3,0,6,0.00
2013-11-18,65,53,40,51,46,38,92,79,59,30.12,30.03,8,2,12,0.00
2013-11-19,66,57,49,54,51,45,91,81,60,30.08,29.94,4,1,7,0.15
2013-11-20,62,57,53,57,54,51,93,91,80,29.96,29.82,4,1,14,0.70
2013-11-21,62,54,48,53,47,38,94,79,52,29.95,29.84,10,5,16,0.01
2013-11-22,57,48,40,47,40,33,90,75,47,30.00,29.90,5,1,11,0.00
2013-11-23,63,50,40,54,44,-100,93,85,61,30.09,29.97,3,0,7,0.01
2013-11-24,64,50,39,50,45,37,93,83,59,30.23,30.09,3,0,7,0.01
2013-11-25,63,48,37,50,43,35,93,84,61,30.32,30.23,4,0,8,0.01
2013-11-26,63,50,40,52,45,38,93,84,62,30.27,30.05,2,0,6,0.01
2013-11-27,67,54,45,53,48,43,92,82,56,30.05,29.83,4,0,6,0.01
2013-11-28,69,54,46,52,47,43,90,79,50,30.04,29.85,2,0,6,0.01
2013-11-29,69,53,41,52,46,39,92,79,53,30.19,30.05,5,0,7,0.00
2013-11-30,66,51,40,52,44,-100,92,79,55,30.24,30.16,7,1,12,0.01
2013-12-1,67,52,39,51,45,37,92,79,53,30.33,30.19,6,0,9,0.01
2013-12-2,69,55,43,52,47,40,90,78,52,30.23,29.92,8,1,12,0.01
2013-12-3,56,51,42,50,40,28,91,67,39,29.92,29.80,15,5,21,0.01
2013-12-4,49,39,29,31,27,23,81,63,36,30.06,29.88,8,3,13,0.01
2013-12-5,50,35,26,28,25,22,88,68,40,30.16,30.06,7,2,12,0.00
2013-12-6,51,41,29,34,29,24,85,65,45,30.19,29.93,6,2,19,0.03
2013-12-7,48,41,35,40,33,-100,90,76,50,30.21,29.93,10,2,23,0.27
2013-12-8,43,36,30,33,31,27,91,81,63,30.31,30.21,8,3,13,0.01
2013-12-9,50,36,25,32,27,22,90,74,49,30.42,30.31,3,0,5,0.01
2013-12-10,52,37,27,37,31,24,91,79,53,30.42,30.20,2,0,5,0.01
2013-12-11,56,40,30,39,33,27,91,77,49,30.27,30.18,2,0,5,0.01
2013-12-12,58,41,30,41,34,27,92,79,52,30.26,30.16,6,1,8,0.00
2013-12-13,57,42,31,41,35,28,91,77,51,30.32,30.21,8,2,13,0.01
2013-12-14,60,44,34,43,35,-100,90,74,51,30.40,30.31,3,0,7,0.01
2013-12-15,62,43,31,44,36,28,91,80,49,30.37,30.24,2,0,5,0.00
2013-12-16,64,47,34,45,39,31,91,76,49,30.25,30.12,2,0,5,0.00
2013-12-17,62,47,37,47,41,34,91,80,58,30.18,30.03,4,1,8,0.00
2013-12-18,65,53,46,48,46,42,89,76,53,30.03,29.71,5,1,9,0.00
2013-12-19,61,50,45,47,40,29,90,70,40,29.88,29.66,14,4,23,0.00
2013-12-20,56,45,37,34,28,25,82,54,37,29.98,29.88,6,2,9,0.00
2013-12-21,59,44,35,43,35,-100,91,74,50,30.09,29.96,6,1,10,0.00
2013-12-22,63,46,34,44,37,31,89,73,48,30.29,30.09,2,0,4,0.00
2013-12-23,64,50,36,46,40,33,89,72,50,30.39,30.29,3,0,7,0.00
2013-12-24,64,49,35,47,40,32,90,74,51,30.32,30.19,3,0,6,0.00
2013-12-25,64,47,35,47,40,32,91,78,54,30.30,30.19,4,1,7,0.00
2013-12-26,67,48,33,47,40,30,96,75,47,30.27,30.16,2,0,4,0.00
2013-12-27,59,46,34,46,39,31,91,79,59,30.24,30.10,3,0,5,0.01
2013-12-28,61,44,35,43,35,-100,92,74,46,30.12,30.00,10,2,14,0.01
2013-12-29,63,46,33,44,37,30,89,73,45,30.18,30.08,4,0,10,0.00
2013-12-30,64,45,32,45,38,29,90,77,47,30.26,30.17,3,0,6,0.00
2013-12-31,63,46,35,45,38,32,90,77,49,30.25,30.13,6,1,9,0.00
2014-1-1,66,47,33,42,37,30,89,71,40,30.21,30.11,3,0,8,0.00
2014-1-2,63,47,35,45,38,31,88,72,48,30.18,30.04,5,1,8,0.00